Time,TemperatureF,DewpointF,PressureIn,WindDirection,WindDirectionDegrees,WindSpeedMPH,WindSpeedGustMPH,Humidity,HourlyPrecipIn,Conditions,Clouds,dailyrainin,SoftwareType,DateUTC
2013-05-24 00:05:00,67.6,66.0,29.74,SW,218,0.0,1.0,95,0.00,,,0.00,weatherlink.com 1.10,2013-05-24 04:05:00,
2013-05-24 00:20:00,67.5,66.0,29.73,SW,236,0.0,1.0,95,0.00,,,0.00,weatherlink.com 1.10,2013-05-24 04:20:00,
2013-05-24 00:36:00,67.4,66.0,29.73,SW,226,0.0,2.0,95,0.00,,,0.00,weatherlink.com 1.10,2013-05-24 04:36:00,
2013-05-24 00:50:00,67.3,66.0,29.73,SW,226,0.0,1.0,95,0.00,,,0.00,weatherlink.com 1.10,2013-05-24 04:50:00,
2013-05-24 01:05:00,67.1,65.0,29.74,North,8,2.0,5.0,93,0.00,,,0.00,weatherlink.com 1.10,2013-05-24 05:05:00,
2013-05-24 01:20:00,65.2,63.0,29.73,North,11,1.0,2.0,91,0.00,,,0.00,weatherlink.com 1.10,2013-05-24 05:20:00,
2013-05-24 01:35:00,64.6,62.0,29.73,WSW,249,0.0,2.0,92,0.00,,,0.00,weatherlink.com 1.10,2013-05-24 05:35:00,
2013-05-24 01:50:00,64.2,62.0,29.72,WSW,249,0.0,0.0,93,0.06,,,0.06,weatherlink.com 1.10,2013-05-24 05:50:00,
2013-05-24 02:05:00,63.9,63.0,29.72,WSW,249,0.0,0.0,95,0.12,,,0.12,weatherlink.com 1.10,2013-05-24 06:05:00,
2013-05-24 02:20:00,63.5,62.0,29.70,WSW,249,0.0,0.0,96,0.13,,,0.13,weatherlink.com 1.10,2013-05-24 06:20:00,
2013-05-24 02:35:00,63.2,62.0,29.70,WSW,257,0.0,1.0,96,0.13,,,0.13,weatherlink.com 1.10,2013-05-24 06:35:00,
2013-05-24 02:50:00,63.0,62.0,29.69,WSW,257,0.0,0.0,96,0.06,,,0.13,weatherlink.com 1.10,2013-05-24 06:50:00,
2013-05-24 03:05:00,62.8,62.0,29.68,WSW,257,0.0,0.0,96,0.01,,,0.13,weatherlink.com 1.10,2013-05-24 07:05:00,
2013-05-24 03:21:00,62.9,62.0,29.69,WSW,257,0.0,0.0,97,0.00,,,0.13,weatherlink.com 1.10,2013-05-24 07:21:00,
2013-05-24 03:36:00,62.8,62.0,29.69,WSW,257,0.0,0.0,97,0.00,,,0.13,weatherlink.com 1.10,2013-05-24 07:36:00,
2013-05-24 03:51:00,62.7,62.0,29.70,West,259,0.0,0.0,97,0.00,,,0.13,weatherlink.com 1.10,2013-05-24 07:51:00,
2013-05-24 04:06:00,62.6,62.0,29.70,West,259,0.0,0.0,97,0.00,,,0.13,weatherlink.com 1.10,2013-05-24 08:06:00,
2013-05-24 04:21:00,62.6,62.0,29.70,West,259,0.0,0.0,97,0.00,,,0.13,weatherlink.com 1.10,2013-05-24 08:21:00,
2013-05-24 04:36:00,62.6,62.0,29.70,West,259,0.0,0.0,97,0.01,,,0.14,weatherlink.com 1.10,2013-05-24 08:36:00,
2013-05-24 04:51:00,62.6,62.0,29.70,West,259,0.0,0.0,98,0.01,,,0.14,weatherlink.com 1.10,2013-05-24 08:51:00,
2013-05-24 05:06:00,62.4,62.0,29.71,West,259,0.0,0.0,97,0.01,,,0.14,weatherlink.com 1.10,2013-05-24 09:06:00,
2013-05-24 05:21:00,62.1,61.0,29.71,West,259,0.0,0.0,97,0.00,,,0.14,weatherlink.com 1.10,2013-05-24 09:21:00,
2013-05-24 05:36:00,62.1,62.0,29.71,West,259,0.0,0.0,98,0.00,,,0.14,weatherlink.com 1.10,2013-05-24 09:36:00,
2013-05-24 05:51:00,62.2,62.0,29.71,West,259,0.0,0.0,98,0.00,,,0.14,weatherlink.com 1.10,2013-05-24 09:51:00,
2013-05-24 06:06:00,62.1,62.0,29.71,West,259,0.0,0.0,98,0.00,,,0.14,weatherlink.com 1.10,2013-05-24 10:06:00,
2013-05-24 06:21:00,62.1,62.0,29.71,WNW,294,0.0,0.0,98,0.00,,,0.14,weatherlink.com 1.10,2013-05-24 10:21:00,
2013-05-24 06:36:00,62.1,62.0,29.72,WNW,292,0.0,0.0,98,0.00,,,0.14,weatherlink.com 1.10,2013-05-24 10:36:00,
2013-05-24 06:51:00,62.2,62.0,29.72,WNW,291,0.0,0.0,98,0.00,,,0.14,weatherlink.com 1.10,2013-05-24 10:51:00,
2013-05-24 07:06:00,62.3,62.0,29.73,West,274,1.0,1.0,98,0.00,,,0.14,weatherlink.com 1.10,2013-05-24 11:06:00,
2013-05-24 07:21:00,62.3,62.0,29.73,NNW,333,0.0,1.0,98,0.00,,,0.14,weatherlink.com 1.10,2013-05-24 11:21:00,
2013-05-24 07:36:00,62.4,62.0,29.73,NNW,333,0.0,0.0,98,0.00,,,0.14,weatherlink.com 1.10,2013-05-24 11:36:00,
2013-05-24 07:51:00,62.8,62.0,29.74,NNW,333,0.0,0.0,98,0.00,,,0.14,weatherlink.com 1.10,2013-05-24 11:51:00,
2013-05-24 08:06:00,63.1,62.0,29.74,NNW,333,0.0,0.0,97,0.00,,,0.14,weatherlink.com 1.10,2013-05-24 12:06:00,
2013-05-24 08:21:00,63.2,62.0,29.74,NNW,333,0.0,0.0,97,0.00,,,0.14,weatherlink.com 1.10,2013-05-24 12:21:00,
2013-05-24 08:36:00,63.4,63.0,29.74,NNW,333,0.0,0.0,97,0.00,,,0.14,weatherlink.com 1.10,2013-05-24 12:36:00,
2013-05-24 08:51:00,63.7,63.0,29.74,NNW,333,0.0,0.0,96,0.00,,,0.14,weatherlink.com 1.10,2013-05-24 12:51:00,
2013-05-24 09:06:00,64.2,63.0,29.75,WNW,298,0.0,0.0,95,0.00,,,0.14,weatherlink.com 1.10,2013-05-24 13:06:00,
2013-05-24 09:21:00,64.6,63.0,29.75,West,281,1.0,1.0,94,0.00,,,0.14,weatherlink.com 1.10,2013-05-24 13:21:00,
2013-05-24 09:36:00,60.5,57.0,29.77,North,356,2.0,7.0,89,0.00,,,0.14,weatherlink.com 1.10,2013-05-24 13:36:00,
2013-05-24 09:51:00,57.7,55.0,29.77,NNW,344,0.0,6.0,89,0.00,,,0.14,weatherlink.com 1.10,2013-05-24 13:51:00,
2013-05-24 10:06:00,56.0,53.0,29.77,NNW,328,1.0,7.0,89,0.00,,,0.14,weatherlink.com 1.10,2013-05-24 14:06:00,
2013-05-24 10:21:00,55.5,52.0,29.78,NW,310,1.0,5.0,89,0.00,,,0.14,weatherlink.com 1.10,2013-05-24 14:21:00,
2013-05-24 10:36:00,54.9,51.0,29.77,North,11,4.0,6.0,87,0.00,,,0.14,weatherlink.com 1.10,2013-05-24 14:36:00,
2013-05-24 10:51:00,54.8,50.0,29.77,NNE,25,5.0,10.0,84,0.00,,,0.14,weatherlink.com 1.10,2013-05-24 14:51:00,
2013-05-24 11:06:00,54.8,50.0,29.77,NE,47,6.0,10.0,83,0.00,,,0.14,weatherlink.com 1.10,2013-05-24 15:06:00,
2013-05-24 11:21:00,54.7,49.0,29.78,North,6,3.0,10.0,82,0.00,,,0.14,weatherlink.com 1.10,2013-05-24 15:21:00,
2013-05-24 11:36:00,54.7,49.0,29.78,NNW,345,4.0,10.0,80,0.00,,,0.14,weatherlink.com 1.10,2013-05-24 15:36:00,
2013-05-24 11:51:00,54.5,48.0,29.79,ENE,58,2.0,10.0,79,0.00,,,0.14,weatherlink.com 1.10,2013-05-24 15:51:00,
2013-05-24 12:06:00,54.1,48.0,29.80,South,171,1.0,5.0,81,0.00,,,0.14,weatherlink.com 1.10,2013-05-24 16:06:00,
2013-05-24 12:21:00,53.5,48.0,29.82,WNW,291,3.0,3.0,81,0.00,,,0.14,weatherlink.com 1.10,2013-05-24 16:21:00,
2013-05-24 12:36:00,52.4,46.0,29.82,SW,217,4.0,8.0,80,0.00,,,0.14,weatherlink.com 1.10,2013-05-24 16:36:00,
2013-05-24 12:52:00,51.2,47.0,29.83,West,267,0.0,7.0,85,0.00,,,0.14,weatherlink.com 1.10,2013-05-24 16:52:00,
2013-05-24 13:07:00,50.0,47.0,29.83,West,267,2.0,6.0,90,0.01,,,0.15,weatherlink.com 1.10,2013-05-24 17:07:00,
2013-05-24 13:22:00,48.9,47.0,29.83,North,358,3.0,6.0,93,0.11,,,0.25,weatherlink.com 1.10,2013-05-24 17:22:00,
2013-05-24 13:37:00,48.7,47.0,29.83,North,6,0.0,5.0,94,0.15,,,0.29,weatherlink.com 1.10,2013-05-24 17:37:00,
2013-05-24 13:52:00,48.8,47.0,29.83,NW,326,1.0,7.0,94,0.18,,,0.32,weatherlink.com 1.10,2013-05-24 17:52:00,
2013-05-24 14:07:00,48.9,47.0,29.84,NE,38,3.0,6.0,94,0.18,,,0.33,weatherlink.com 1.10,2013-05-24 18:07:00,
2013-05-24 14:22:00,49.0,47.0,29.84,NE,46,3.0,6.0,94,0.12,,,0.37,weatherlink.com 1.10,2013-05-24 18:22:00,
2013-05-24 14:37:00,49.1,48.0,29.84,North,11,1.0,8.0,94,0.08,,,0.37,weatherlink.com 1.10,2013-05-24 18:37:00,
2013-05-24 14:52:00,49.3,48.0,29.85,West,263,3.0,8.0,94,0.07,,,0.39,weatherlink.com 1.10,2013-05-24 18:52:00,
2013-05-24 15:07:00,49.0,47.0,29.84,NNW,339,5.0,5.0,94,0.08,,,0.41,weatherlink.com 1.10,2013-05-24 19:07:00,
2013-05-24 15:22:00,48.7,47.0,29.84,ENE,57,7.0,7.0,94,0.07,,,0.44,weatherlink.com 1.10,2013-05-24 19:22:00,
2013-05-24 15:37:00,48.8,47.0,29.84,NNE,26,3.0,7.0,94,0.08,,,0.45,weatherlink.com 1.10,2013-05-24 19:37:00,
2013-05-24 15:52:00,49.4,48.0,29.84,West,278,0.0,3.0,94,0.06,,,0.46,weatherlink.com 1.10,2013-05-24 19:52:00,
2013-05-24 16:07:00,49.4,48.0,29.85,NE,41,1.0,4.0,94,0.05,,,0.46,weatherlink.com 1.10,2013-05-24 20:07:00,
2013-05-24 16:22:00,49.0,47.0,29.86,NNE,25,1.0,5.0,93,0.03,,,0.47,weatherlink.com 1.10,2013-05-24 20:22:00,
2013-05-24 16:52:00,48.3,47.0,29.87,NW,312,1.0,8.0,94,0.08,,,0.54,weatherlink.com 1.10,2013-05-24 20:52:00,
2013-05-24 17:07:00,48.1,46.0,29.87,NNE,13,1.0,6.0,93,0.08,,,0.54,weatherlink.com 1.10,2013-05-24 21:07:00,
2013-05-24 17:22:00,47.9,46.0,29.88,NW,312,0.0,5.0,93,0.08,,,0.55,weatherlink.com 1.10,2013-05-24 21:22:00,
2013-05-24 17:37:00,47.2,45.0,29.88,SSE,166,2.0,8.0,91,0.03,,,0.55,weatherlink.com 1.10,2013-05-24 21:37:00,
2013-05-24 17:52:00,47.2,45.0,29.89,NNE,16,4.0,5.0,91,0.02,,,0.56,weatherlink.com 1.10,2013-05-24 21:52:00,
2013-05-24 18:07:00,46.9,44.0,29.90,NE,41,3.0,8.0,90,0.02,,,0.56,weatherlink.com 1.10,2013-05-24 22:07:00,
2013-05-24 18:22:00,46.7,44.0,29.90,North,4,0.0,5.0,90,0.01,,,0.56,weatherlink.com 1.10,2013-05-24 22:22:00,
2013-05-24 18:37:00,46.4,44.0,29.90,North,5,2.0,8.0,90,0.01,,,0.56,weatherlink.com 1.10,2013-05-24 22:37:00,
2013-05-24 18:52:00,46.2,44.0,29.89,WNW,293,2.0,5.0,90,0.00,,,0.56,weatherlink.com 1.10,2013-05-24 22:52:00,
2013-05-24 19:07:00,46.2,44.0,29.90,North,360,4.0,5.0,90,0.00,,,0.56,weatherlink.com 1.10,2013-05-24 23:07:00,
2013-05-24 19:22:00,46.1,43.0,29.92,WSW,247,2.0,7.0,88,0.00,,,0.56,weatherlink.com 1.10,2013-05-24 23:22:00,
2013-05-24 19:37:00,46.0,43.0,29.93,North,351,2.0,7.0,88,0.00,,,0.56,weatherlink.com 1.10,2013-05-24 23:37:00,
2013-05-24 19:52:00,46.0,43.0,29.93,NW,308,0.0,6.0,88,0.00,,,0.56,weatherlink.com 1.10,2013-05-24 23:52:00,
2013-05-24 20:07:00,46.2,42.0,29.92,SW,221,0.0,8.0,86,0.00,,,0.56,weatherlink.com 1.10,2013-05-25 00:07:00,
2013-05-24 20:23:00,46.3,42.0,29.94,NNE,18,1.0,6.0,86,0.00,,,0.56,weatherlink.com 1.10,2013-05-25 00:23:00,
2013-05-24 20:38:00,46.3,42.0,29.94,West,281,0.0,6.0,86,0.00,,,0.56,weatherlink.com 1.10,2013-05-25 00:38:00,
2013-05-24 20:53:00,46.4,42.0,29.93,WNW,295,0.0,8.0,85,0.00,,,0.56,weatherlink.com 1.10,2013-05-25 00:53:00,
2013-05-24 21:08:00,46.4,42.0,29.94,NW,304,2.0,4.0,84,0.00,,,0.56,weatherlink.com 1.10,2013-05-25 01:08:00,
2013-05-24 21:23:00,46.5,42.0,29.92,WNW,293,1.0,6.0,83,0.00,,,0.56,weatherlink.com 1.10,2013-05-25 01:23:00,
2013-05-24 21:38:00,46.5,41.0,29.94,NE,50,0.0,8.0,82,0.00,,,0.56,weatherlink.com 1.10,2013-05-25 01:38:00,
2013-05-24 21:53:00,46.4,42.0,29.96,NNE,23,1.0,4.0,85,0.00,,,0.56,weatherlink.com 1.10,2013-05-25 01:53:00,
2013-05-24 22:08:00,46.4,42.0,29.96,NNE,23,3.0,3.0,84,0.00,,,0.56,weatherlink.com 1.10,2013-05-25 02:08:00,
2013-05-24 22:23:00,46.4,42.0,29.96,NW,305,0.0,3.0,84,0.00,,,0.56,weatherlink.com 1.10,2013-05-25 02:23:00,
2013-05-24 22:38:00,45.9,42.0,29.95,North,356,1.0,4.0,86,0.01,,,0.57,weatherlink.com 1.10,2013-05-25 02:38:00,
2013-05-24 22:53:00,45.6,42.0,29.96,West,259,0.0,5.0,87,0.01,,,0.57,weatherlink.com 1.10,2013-05-25 02:53:00,
2013-05-24 23:08:00,45.5,43.0,29.95,WNW,284,0.0,3.0,89,0.01,,,0.57,weatherlink.com 1.10,2013-05-25 03:08:00,
2013-05-24 23:23:00,45.5,42.0,29.95,NNE,20,1.0,4.0,88,0.01,,,0.57,weatherlink.com 1.10,2013-05-25 03:23:00,
2013-05-24 23:38:00,45.5,42.0,29.95,North,356,0.0,3.0,87,0.00,,,0.57,weatherlink.com 1.10,2013-05-25 03:38:00,
2013-05-24 23:53:00,45.3,42.0,29.96,NNW,342,2.0,6.0,88,0.00,,,0.57,weatherlink.com 1.10,2013-05-25 03:53:00,